Time;durP1;ratioP1;P1;durP2;ratioP2;P2;SDS_P1;SDS_P2;PMS_P1;PMS_P2;Temp;Humidity;BMP_temperature;BMP_pressure;BME280_temperature;BME280_humidity;BME280_pressure;Samples;Min_cycle;Max_cycle;Signal;HPM_P1;HPM_P2
2023/10/02 00:00:18;;;;;;;11.68;7.50;;;;;;;14.85;61.38;94061.47;528268;28;817;-41
2023/10/02 00:00:34;;;;;;;12.40;7.47;;;;;;;14.84;61.25;94062.75;528191;28;880;-40
2023/10/02 00:01:17;;;;;;;13.20;8.15;;;;;;;14.84;61.10;94059.97;528254;28;829;-41
2023/10/02 00:01:33;;;;;;;11.05;8.43;;;;;;;14.82;61.02;94054.22;528214;28;911;-40
2023/10/02 00:01:51;;;;;;;11.30;8.23;;;;;;;14.82;60.96;94062.56;528164;28;848;-41
2023/10/02 00:02:06;;;;;;;11.75;8.57;;;;;;;14.82;60.97;94062.56;528178;28;942;-41
2023/10/02 00:02:55;;;;;;;10.70;7.30;;;;;;;14.79;60.81;94058.13;527963;28;722;-41
2023/10/02 00:03:11;;;;;;;11.13;8.07;;;;;;;14.78;61.00;94055.91;528115;28;829;-40
2023/10/02 00:03:28;;;;;;;11.03;8.00;;;;;;;14.76;60.84;94056.50;528168;28;809;-41
2023/10/02 00:03:47;;;;;;;11.43;7.88;;;;;;;14.77;60.92;94054.47;528186;28;837;-41
2023/10/02 00:04:18;;;;;;;11.85;8.65;;;;;;;14.74;60.84;94052.78;528190;27;932;-41
2023/10/02 00:04:35;;;;;;;10.98;7.90;;;;;;;14.75;61.09;94057.06;528129;28;927;-41
2023/10/02 00:04:51;;;;;;;12.02;7.57;;;;;;;14.73;61.10;94054.81;528256;28;860;-40
2023/10/02 00:05:07;;;;;;;10.73;7.97;;;;;;;14.73;61.01;94054.81;528151;28;987;-40
2023/10/02 00:05:40;;;;;;;11.07;8.63;;;;;;;14.72;61.00;94061.69;528288;28;820;-40
2023/10/02 00:05:55;;;;;;;12.25;8.40;;;;;;;14.70;61.05;94053.19;528213;28;856;-40
2023/10/02 00:06:12;;;;;;;11.75;8.43;;;;;;;14.71;61.14;94051.88;528187;28;833;-40
2023/10/02 00:06:27;;;;;;;13.80;8.27;;;;;;;14.70;61.07;94050.41;528218;28;884;-40
2023/10/02 00:06:43;;;;;;;13.27;8.80;;;;;;;14.71;61.32;94053.91;528196;28;857;-40
2023/10/02 00:07:07;;;;;;;11.65;8.82;;;;;;;14.70;61.36;94053.19;528217;28;1635;-41
2023/10/02 00:07:25;;;;;;;13.55;8.52;;;;;;;14.69;61.35;94048.16;528021;28;976;-40
2023/10/02 00:07:44;;;;;;;17.45;8.82;;;;;;;14.68;61.55;94053.00;528069;28;869;-41
2023/10/02 00:08:00;;;;;;;20.70;9.77;;;;;;;14.68;61.47;94047.44;527856;28;2412;-41
2023/10/02 00:08:31;;;;;;;17.20;8.30;;;;;;;14.68;61.46;94052.25;528003;28;1380;-40
2023/10/02 00:08:51;;;;;;;11.90;8.57;;;;;;;14.66;61.56;94050.03;527973;28;919;-40
2023/10/02 00:09:07;;;;;;;11.07;8.50;;;;;;;14.67;61.64;94045.22;527981;28;840;-40
2023/10/02 00:09:25;;;;;;;12.00;7.97;;;;;;;14.65;61.32;94051.34;528226;28;841;-41
2023/10/02 00:09:49;;;;;;;14.57;8.55;;;;;;;14.65;61.48;94056.16;528191;28;911;-41
2023/10/02 00:10:05;;;;;;;10.85;7.78;;;;;;;14.64;61.36;94051.91;528219;28;892;-40
2023/10/02 00:10:24;;;;;;;11.05;8.13;;;;;;;14.63;61.44;94051.16;528224;28;884;-40
2023/10/02 00:10:40;;;;;;;9.93;7.93;;;;;;;14.61;61.49;94047.47;528163;28;907;-40
2023/10/02 00:11:02;;;;;;;8.90;7.72;;;;;;;14.59;61.54;94050.06;528152;28;952;-41
2023/10/02 00:11:35;;;;;;;9.77;7.88;;;;;;;14.57;61.42;94052.66;528149;28;856;-40
2023/10/02 00:11:52;;;;;;;12.82;8.15;;;;;;;14.55;61.58;94053.22;528161;28;967;-40
2023/10/02 00:12:11;;;;;;;11.50;7.85;;;;;;;14.54;61.60;94048.97;528151;28;884;-40
2023/10/02 00:12:31;;;;;;;10.38;8.18;;;;;;;14.54;61.66;94048.97;528163;28;889;-40
2023/10/02 00:12:58;;;;;;;11.25;8.05;;;;;;;14.53;61.71;94053.03;528131;28;880;-40
2023/10/02 00:13:13;;;;;;;11.18;8.23;;;;;;;14.50;61.66;94051.38;528224;28;911;-40
2023/10/02 00:13:30;;;;;;;11.35;8.40;;;;;;;14.53;61.68;94053.03;528171;28;876;-41
2023/10/02 00:13:48;;;;;;;12.55;8.70;;;;;;;14.52;61.73;94057.13;528181;28;800;-40
2023/10/02 00:14:18;;;;;;;12.80;8.73;;;;;;;14.52;61.78;94056.38;528187;28;832;-41
2023/10/02 00:14:38;;;;;;;12.02;8.30;;;;;;;14.49;61.84;94049.88;528191;28;833;-41
2023/10/02 00:14:55;;;;;;;10.35;7.85;;;;;;;14.50;61.70;94051.38;528221;28;970;-41
2023/10/02 00:15:14;;;;;;;10.75;8.10;;;;;;;14.51;61.69;94052.13;528222;28;1906;-41
2023/10/02 00:15:29;;;;;;;12.15;8.48;;;;;;;14.50;61.88;94062.50;528216;28;844;-40
2023/10/02 00:15:45;;;;;;;12.15;8.50;;;;;;;14.50;61.89;94058.97;528144;28;928;-41
2023/10/02 00:16:01;;;;;;;12.02;8.75;;;;;;;14.50;61.92;94058.97;528165;28;1097;-41
2023/10/02 00:16:18;;;;;;;13.07;8.93;;;;;;;14.48;61.88;94053.97;528137;28;856;-40
2023/10/02 00:16:34;;;;;;;12.90;8.38;;;;;;;14.48;61.95;94059.53;528211;28;911;-40
2023/10/02 00:17:00;;;;;;;11.17;8.03;;;;;;;14.47;61.87;94057.34;528258;28;856;-40
2023/10/02 00:17:15;;;;;;;12.25;8.63;;;;;;;14.48;61.93;94056.75;528157;28;928;-41
2023/10/02 00:17:32;;;;;;;11.73;8.15;;;;;;;14.48;62.02;94059.53;528271;28;864;-41
2023/10/02 00:17:48;;;;;;;10.23;7.75;;;;;;;14.48;61.95;94056.75;527682;28;1132;-41
2023/10/02 00:18:04;;;;;;;11.50;8.68;;;;;;;14.47;61.93;94058.03;526174;28;880;-41
2023/10/02 00:18:20;;;;;;;11.38;8.63;;;;;;;14.47;61.91;94055.28;526103;28;809;-40
2023/10/02 00:18:35;;;;;;;10.63;7.90;;;;;;;14.47;61.97;94058.03;526034;28;1519;-41
2023/10/02 00:18:51;;;;;;;12.57;8.73;;;;;;;14.46;61.88;94053.81;526132;28;785;-41
2023/10/02 00:19:18;;;;;;;12.80;8.90;;;;;;;14.46;61.84;94062.13;526060;28;960;-40
2023/10/02 00:19:41;;;;;;;9.43;8.02;;;;;;;14.46;61.83;94053.81;526086;28;952;-40
2023/10/02 00:20:05;;;;;;;11.40;8.25;;;;;;;14.46;61.76;94056.59;526111;28;868;-41
2023/10/02 00:20:26;;;;;;;10.60;8.05;;;;;;;14.46;61.82;94055.84;526018;28;1333;-41
2023/10/02 00:20:41;;;;;;;10.82;8.20;;;;;;;14.44;61.80;94051.56;526081;28;888;-41
2023/10/02 00:21:17;;;;;;;11.93;8.70;;;;;;;14.44;61.95;94059.91;526129;28;808;-41
2023/10/02 00:21:32;;;;;;;13.27;9.43;;;;;;;14.45;61.96;94063.44;526162;28;1970;-41
2023/10/02 00:21:49;;;;;;;11.95;8.90;;;;;;;14.44;61.87;94056.41;525997;28;897;-41
2023/10/02 00:22:07;;;;;;;12.23;8.70;;;;;;;14.44;61.87;94059.91;526171;28;907;-41
2023/10/02 00:22:42;;;;;;;13.95;9.13;;;;;;;14.44;61.95;94053.63;526127;28;1022;-41
2023/10/02 00:22:58;;;;;;;11.60;8.25;;;;;;;14.44;61.75;94053.63;526084;28;821;-40
2023/10/02 00:23:15;;;;;;;10.30;8.23;;;;;;;14.42;61.91;94056.94;526088;28;951;-41
2023/10/02 00:23:30;;;;;;;10.45;8.23;;;;;;;14.43;61.89;94057.69;526069;28;853;-41
2023/10/02 00:24:01;;;;;;;9.67;8.17;;;;;;;14.43;61.85;94060.47;526125;28;832;-40
2023/10/02 00:24:16;;;;;;;10.43;8.27;;;;;;;14.40;62.03;94065.09;526031;28;964;-41
2023/10/02 00:24:35;;;;;;;11.30;8.05;;;;;;;14.39;62.14;94057.34;526174;28;896;-40
2023/10/02 00:24:50;;;;;;;12.63;8.05;;;;;;;14.36;62.13;94056.41;526086;28;940;-41
2023/10/02 00:25:17;;;;;;;10.90;8.30;;;;;;;14.38;62.29;94056.59;526093;28;809;-41
2023/10/02 00:25:51;;;;;;;11.00;8.65;;;;;;;14.38;62.26;94059.38;526131;28;876;-41
2023/10/02 00:26:07;;;;;;;18.93;9.17;;;;;;;14.39;62.48;94054.56;526597;28;1122;-41
2023/10/02 00:26:23;;;;;;;17.30;9.23;;;;;;;14.39;62.43;94058.09;527937;28;1277;-41
2023/10/02 00:26:39;;;;;;;16.00;8.93;;;;;;;14.37;62.46;94057.91;528132;28;1095;-41
2023/10/02 00:26:57;;;;;;;19.38;9.68;;;;;;;14.37;62.51;94057.16;528215;28;915;-41
2023/10/02 00:27:13;;;;;;;17.65;10.18;;;;;;;14.36;62.58;94055.66;527421;28;1251;-41
2023/10/02 00:27:28;;;;;;;11.00;9.47;;;;;;;14.34;62.95;94052.72;526153;28;828;-40
2023/10/02 00:27:51;;;;;;;11.90;9.55;;;;;;;14.34;62.69;94055.50;526048;28;841;-40
2023/10/02 00:28:10;;;;;;;10.98;8.43;;;;;;;14.31;62.65;94062.91;526041;28;928;-40
2023/10/02 00:28:30;;;;;;;11.77;8.77;;;;;;;14.29;62.60;94059.22;526041;28;1050;-41
2023/10/02 00:28:45;;;;;;;13.65;8.75;;;;;;;14.26;62.77;94055.50;526055;28;864;-40
2023/10/02 00:29:06;;;;;;;13.38;8.43;;;;;;;14.27;62.71;94056.22;526138;28;825;-41
2023/10/02 00:29:23;;;;;;;12.35;8.57;;;;;;;14.29;62.74;94053.66;526160;28;872;-41
2023/10/02 00:29:57;;;;;;;11.45;8.52;;;;;;;14.31;62.69;94054.56;525991;28;865;-41
2023/10/02 00:30:16;;;;;;;9.88;7.85;;;;;;;14.33;62.68;94056.78;526171;28;876;-40
2023/10/02 00:30:36;;;;;;;11.23;7.88;;;;;;;14.33;62.64;94051.25;526153;28;876;-41
2023/10/02 00:30:51;;;;;;;11.30;7.97;;;;;;;14.35;62.61;94054.19;526083;28;963;-40
2023/10/02 00:31:32;;;;;;;10.00;8.03;;;;;;;14.36;62.61;94058.44;526080;28;920;-41
2023/10/02 00:31:50;;;;;;;10.25;8.05;;;;;;;14.38;62.62;94051.03;525936;28;1658;-40
2023/10/02 00:32:11;;;;;;;11.27;8.05;;;;;;;14.39;62.54;94051.78;526146;28;911;-40
2023/10/02 00:32:29;;;;;;;11.60;8.77;;;;;;;14.40;62.60;94051.22;526111;28;943;-41
2023/10/02 00:32:47;;;;;;;12.80;8.88;;;;;;;14.40;62.58;94054.00;526200;28;896;-40
2023/10/02 00:33:05;;;;;;;17.50;8.68;;;;;;;14.40;62.71;94056.78;526199;28;912;-40
2023/10/02 00:33:27;;;;;;;14.82;8.35;;;;;;;14.41;62.89;94047.16;525973;28;888;-41
2023/10/02 00:33:43;;;;;;;12.13;8.75;;;;;;;14.42;62.55;94059.72;525920;28;891;-40
2023/10/02 00:34:00;;;;;;;12.13;8.82;;;;;;;14.41;62.60;94046.41;525932;28;923;-40
2023/10/02 00:34:15;;;;;;;12.25;8.63;;;;;;;14.41;62.78;94051.97;527348;28;1212;-40
2023/10/02 00:34:30;;;;;;;11.70;8.32;;;;;;;14.40;62.72;94054.00;528061;28;1417;-41
2023/10/02 00:34:47;;;;;;;10.63;7.80;;;;;;;14.40;62.67;94047.72;528028;28;793;-41
2023/10/02 00:35:03;;;;;;;9.20;7.43;;;;;;;14.40;62.72;94050.50;527950;28;1966;-41
2023/10/02 00:35:22;;;;;;;8.82;7.28;;;;;;;14.41;62.82;94051.97;528087;28;951;-41
2023/10/02 00:35:50;;;;;;;10.45;7.80;;;;;;;14.41;62.99;94049.19;528224;28;825;-41
2023/10/02 00:36:06;;;;;;;11.38;8.20;;;;;;;14.42;63.01;94048.63;528198;28;817;-40
2023/10/02 00:36:22;;;;;;;12.23;8.70;;;;;;;14.43;62.98;94046.59;528202;28;896;-40
2023/10/02 00:36:38;;;;;;;12.05;8.10;;;;;;;14.43;63.15;94050.09;528181;28;1070;-41
2023/10/02 00:36:53;;;;;;;12.02;7.95;;;;;;;14.43;63.12;94050.09;528207;28;908;-40
2023/10/02 00:37:12;;;;;;;11.32;8.55;;;;;;;14.42;63.01;94048.63;528170;28;1027;-40
2023/10/02 00:37:43;;;;;;;10.05;8.38;;;;;;;14.43;62.94;94052.13;528183;28;860;-41
2023/10/02 00:37:59;;;;;;;12.18;8.20;;;;;;;14.42;63.07;94043.06;528147;28;904;-41
2023/10/02 00:38:14;;;;;;;12.30;8.13;;;;;;;14.38;63.17;94053.06;528226;28;908;-40
2023/10/02 00:38:29;;;;;;;11.53;8.00;;;;;;;14.36;63.38;94050.09;528200;28;876;-40
2023/10/02 00:38:45;;;;;;;11.80;8.18;;;;;;;14.34;63.35;94044.38;528125;28;885;-40
2023/10/02 00:39:48;;;;;;;11.52;8.45;;;;;;;14.24;63.85;94051.78;523641;28;805;-40
2023/10/02 00:40:06;;;;;;;12.13;8.47;;;;;;;14.24;63.87;94046.97;523605;28;1773;-40
2023/10/02 00:40:22;;;;;;;11.45;8.23;;;;;;;14.25;63.66;94054.00;523763;28;869;-41
2023/10/02 00:40:39;;;;;;;10.05;7.57;;;;;;;14.26;63.74;94047.16;523652;28;850;-41
2023/10/02 00:40:54;;;;;;;11.63;8.43;;;;;;;14.27;63.67;94048.63;524128;28;1040;-41
2023/10/02 00:41:11;;;;;;;10.63;8.60;;;;;;;14.29;63.72;94045.34;528269;28;856;-40
2023/10/02 00:41:27;;;;;;;9.50;7.95;;;;;;;14.30;63.63;94055.13;528121;28;959;-40
2023/10/02 00:42:05;;;;;;;10.90;7.78;;;;;;;14.30;63.64;94044.75;528204;28;915;-40
2023/10/02 00:42:24;;;;;;;11.93;8.43;;;;;;;14.33;63.59;94049.22;528039;28;1423;-40
2023/10/02 00:42:40;;;;;;;12.15;8.45;;;;;;;14.35;63.64;94046.63;528145;28;849;-40
2023/10/02 00:42:59;;;;;;;11.13;7.95;;;;;;;14.36;63.68;94039.00;528148;28;904;-40
2023/10/02 00:43:48;;;;;;;11.20;7.95;;;;;;;14.38;63.66;94048.25;528098;28;669;-40
2023/10/02 00:44:06;;;;;;;9.90;8.17;;;;;;;14.39;63.40;94049.00;528227;28;879;-41
2023/10/02 00:44:22;;;;;;;11.35;8.38;;;;;;;14.39;63.50;94049.00;528286;28;832;-40
2023/10/02 00:44:56;;;;;;;11.68;8.18;;;;;;;14.38;63.44;94045.47;528101;28;899;-41
2023/10/02 00:45:13;;;;;;;11.80;8.30;;;;;;;14.37;63.63;94051.59;528208;28;1351;-40
2023/10/02 00:45:29;;;;;;;9.88;8.30;;;;;;;14.37;63.73;94046.03;528265;28;896;-40
2023/10/02 00:45:49;;;;;;;11.25;8.35;;;;;;;14.37;63.78;94046.78;528194;28;891;-40
2023/10/02 00:46:04;;;;;;;11.82;8.02;;;;;;;14.37;63.65;94055.13;528263;28;903;-41
2023/10/02 00:46:23;;;;;;;12.52;8.35;;;;;;;14.38;63.82;94047.50;528185;28;947;-41
2023/10/02 00:46:42;;;;;;;10.93;8.32;;;;;;;14.38;63.84;94053.81;528099;28;893;-40
2023/10/02 00:46:57;;;;;;;10.23;8.35;;;;;;;14.40;63.84;94044.94;528165;28;938;-41
2023/10/02 00:47:13;;;;;;;10.00;8.15;;;;;;;14.40;63.80;94045.66;528218;28;954;-40
2023/10/02 00:47:38;;;;;;;10.03;8.30;;;;;;;14.42;63.89;94045.84;527970;28;969;-41
2023/10/02 00:47:53;;;;;;;12.57;8.40;;;;;;;14.43;63.73;94046.59;527994;28;872;-40
2023/10/02 00:48:44;;;;;;;11.07;8.38;;;;;;;14.48;63.54;94053.97;525946;28;683;-40
2023/10/02 00:49:23;;;;;;;11.35;8.10;;;;;;;14.48;63.59;94050.47;525885;28;879;-41
2023/10/02 00:49:35;;;;;;;10.73;7.72;;;;;;;14.50;63.49;94050.63;525772;28;1600;-41
2023/10/02 00:50:06;;;;;;;10.13;7.70;;;;;;;14.50;63.41;94043.06;526007;28;849;-41
2023/10/02 00:50:25;;;;;;;10.40;7.97;;;;;;;14.50;63.48;94054.16;527596;28;915;-40
2023/10/02 00:50:49;;;;;;;11.05;8.18;;;;;;;14.50;63.51;94048.59;528039;28;888;-41
2023/10/02 00:51:07;;;;;;;12.65;8.40;;;;;;;14.49;63.57;94038.06;526445;28;864;-40
2023/10/02 00:51:22;;;;;;;15.23;8.65;;;;;;;14.53;63.47;94049.53;528160;28;887;-41
2023/10/02 00:51:38;;;;;;;15.23;8.63;;;;;;;14.52;63.54;94042.47;527993;28;848;-41
2023/10/02 00:52:00;;;;;;;18.00;8.95;;;;;;;14.53;63.65;94044.69;525987;28;892;-41
2023/10/02 00:52:15;;;;;;;22.25;9.10;;;;;;;14.53;63.55;94047.47;525843;28;872;-40
2023/10/02 00:52:31;;;;;;;14.03;8.43;;;;;;;14.54;63.50;94046.19;523904;28;809;-40
2023/10/02 00:52:55;;;;;;;11.75;8.10;;;;;;;14.54;63.60;94043.41;524463;28;856;-41
2023/10/02 00:53:12;;;;;;;11.93;8.38;;;;;;;14.55;63.53;94047.69;525976;28;801;-41
2023/10/02 00:53:45;;;;;;;13.68;8.95;;;;;;;14.55;63.50;94047.69;525914;28;937;-41
2023/10/02 00:54:23;;;;;;;17.48;9.10;;;;;;;14.56;63.50;94045.63;527963;28;1185;-41
2023/10/02 00:54:36;;;;;;;14.02;8.25;;;;;;;14.45;63.54;94032.88;527998;28;1577;-41
2023/10/02 00:54:51;;;;;;;14.32;9.00;;;;;;;14.57;63.51;94038.78;528010;28;820;-40
2023/10/02 00:55:33;;;;;;;13.20;9.20;;;;;;;14.56;63.36;94048.38;527951;28;1980;-40
2023/10/02 00:55:49;;;;;;;10.30;8.23;;;;;;;14.58;63.54;94045.78;527995;28;820;-41
2023/10/02 00:56:19;;;;;;;10.43;8.82;;;;;;;14.59;63.42;94041.72;527973;28;861;-41
2023/10/02 00:56:35;;;;;;;11.70;8.45;;;;;;;14.59;63.40;94039.69;527959;28;892;-41
2023/10/02 00:56:51;;;;;;;11.53;8.30;;;;;;;14.58;63.46;94043.75;528109;28;920;-40
2023/10/02 00:57:16;;;;;;;10.68;7.80;;;;;;;14.59;63.23;94041.72;528107;28;1058;-41
2023/10/02 00:57:35;;;;;;;11.27;8.43;;;;;;;14.59;63.15;94042.47;528199;28;916;-41
2023/10/02 00:57:53;;;;;;;12.00;8.57;;;;;;;14.59;63.12;94042.47;528017;28;885;-41
2023/10/02 00:58:08;;;;;;;11.23;8.75;;;;;;;14.59;63.01;94044.50;527914;28;922;-40
2023/10/02 00:58:24;;;;;;;12.27;8.32;;;;;;;14.59;62.95;94045.25;525946;28;837;-40
2023/10/02 00:58:40;;;;;;;12.95;7.80;;;;;;;14.58;62.75;94043.75;523840;28;813;-41
2023/10/02 00:59:14;;;;;;;10.80;7.57;;;;;;;14.59;62.65;94036.16;523749;28;927;-41
2023/10/02 00:59:32;;;;;;;12.73;7.78;;;;;;;14.58;62.51;94043.75;523809;28;945;-40
2023/10/02 00:59:47;;;;;;;11.32;7.35;;;;;;;14.57;62.45;94041.53;523491;28;928;-40
2023/10/02 01:00:06;;;;;;;9.27;7.22;;;;;;;14.56;62.33;94045.63;523910;28;821;-40
2023/10/02 01:00:35;;;;;;;12.07;8.13;;;;;;;14.55;62.45;94039.34;525626;28;887;-41
2023/10/02 01:00:53;;;;;;;11.43;8.48;;;;;;;14.55;62.35;94042.13;527971;28;943;-41
2023/10/02 01:01:11;;;;;;;11.45;8.40;;;;;;;14.55;62.26;94044.91;527913;28;938;-40
2023/10/02 01:01:31;;;;;;;10.45;8.15;;;;;;;14.55;62.37;94042.13;527966;28;884;-40
2023/10/02 01:01:47;;;;;;;10.20;8.07;;;;;;;14.57;62.16;94036.00;527900;28;955;-41
2023/10/02 01:02:05;;;;;;;13.15;8.48;;;;;;;14.56;62.19;94034.50;528126;28;896;-41
2023/10/02 01:02:21;;;;;;;14.20;8.40;;;;;;;14.56;62.19;94048.38;528084;28;907;-41
2023/10/02 01:02:36;;;;;;;10.57;8.15;;;;;;;14.56;62.31;94040.81;528013;28;840;-41
2023/10/02 01:02:57;;;;;;;10.30;8.03;;;;;;;14.56;62.28;94040.81;528080;28;809;-41
2023/10/02 01:03:16;;;;;;;10.98;8.13;;;;;;;14.56;62.20;94046.34;528028;28;955;-41
2023/10/02 01:04:06;;;;;;;11.75;8.15;;;;;;;14.57;62.28;94042.28;528041;28;860;-40
2023/10/02 01:04:08;;;;;;;10.07;8.03;;;;;;;14.57;62.19;94041.53;527630;28;2604;-44
2023/10/02 01:04:26;;;;;;;8.90;7.70;;;;;;;14.55;62.30;94039.34;528192;28;860;-40
2023/10/02 01:04:42;;;;;;;9.10;7.70;;;;;;;14.57;62.33;94047.09;528110;28;875;-41
2023/10/02 01:04:58;;;;;;;9.85;8.07;;;;;;;14.55;62.46;94042.13;528183;28;922;-40
2023/10/02 01:05:30;;;;;;;10.95;8.35;;;;;;;14.55;62.29;94042.13;528007;28;1003;-41
2023/10/02 01:05:50;;;;;;;10.93;8.25;;;;;;;14.55;62.30;94044.91;527901;28;1662;-41
2023/10/02 01:06:08;;;;;;;11.25;7.97;;;;;;;14.55;62.42;94042.13;527917;28;971;-41
2023/10/02 01:06:24;;;;;;;12.05;8.30;;;;;;;14.55;62.40;94047.69;528036;28;945;-41
2023/10/02 01:07:16;;;;;;;11.77;8.00;;;;;;;14.56;62.41;94042.84;528012;28;669;-41
2023/10/02 01:07:33;;;;;;;12.02;7.85;;;;;;;14.54;62.49;94043.41;528064;28;875;-40
2023/10/02 01:07:53;;;;;;;13.85;8.23;;;;;;;14.54;62.40;94045.44;525871;28;870;-40
2023/10/02 01:08:24;;;;;;;12.95;9.13;;;;;;;14.53;62.54;94046.75;525857;28;879;-40
2023/10/02 01:08:42;;;;;;;12.57;8.30;;;;;;;14.53;62.67;94043.97;527957;28;829;-40
2023/10/02 01:09:00;;;;;;;11.10;7.95;;;;;;;14.51;62.54;94041.72;525905;28;1021;-40
2023/10/02 01:09:18;;;;;;;10.30;7.85;;;;;;;14.52;62.59;94046.00;525843;28;923;-41
2023/10/02 01:09:34;;;;;;;10.48;7.80;;;;;;;14.51;62.78;94044.50;525882;28;1741;-41
2023/10/02 01:10:07;;;;;;;11.00;8.13;;;;;;;14.51;62.76;94041.72;527946;28;925;-40
2023/10/02 01:10:29;;;;;;;10.70;8.32;;;;;;;14.51;62.70;94036.19;528041;28;821;-41
2023/10/02 01:10:44;;;;;;;10.05;8.13;;;;;;;14.51;62.73;94041.72;528004;28;1016;-40
2023/10/02 01:11:02;;;;;;;10.65;8.18;;;;;;;14.51;62.88;94041.72;528155;28;895;-41
2023/10/02 01:11:20;;;;;;;10.23;8.05;;;;;;;14.52;63.01;94042.47;528083;28;892;-40
2023/10/02 01:11:35;;;;;;;9.82;7.60;;;;;;;14.47;62.88;94037.88;528013;28;923;-41
2023/10/02 01:11:50;;;;;;;11.97;7.97;;;;;;;14.50;62.92;94048.59;527993;28;876;-41
2023/10/02 01:12:10;;;;;;;11.85;8.13;;;;;;;14.16;62.85;93992.75;525850;28;1065;-41
2023/10/02 01:12:38;;;;;;;10.27;7.78;;;;;;;14.48;62.91;94045.66;525865;28;1270;-40
2023/10/02 01:12:57;;;;;;;12.38;8.07;;;;;;;14.34;63.05;94022.16;523784;28;907;-40
2023/10/02 01:13:13;;;;;;;13.15;8.27;;;;;;;14.48;63.14;94039.34;523855;28;868;-40
2023/10/02 01:13:30;;;;;;;11.67;8.10;;;;;;;14.46;63.04;94039.16;525053;28;872;-41
2023/10/02 01:13:45;;;;;;;14.90;8.85;;;;;;;14.47;63.18;94044.16;525926;28;809;-41
2023/10/02 01:14:03;;;;;;;13.47;8.60;;;;;;;14.47;63.09;94044.16;525048;28;810;-40
2023/10/02 01:14:40;;;;;;;11.15;8.35;;;;;;;14.47;63.07;94035.81;525887;28;849;-40
2023/10/02 01:15:06;;;;;;;11.82;7.32;;;;;;;14.49;63.03;94038.06;523661;28;1412;-41
2023/10/02 01:15:26;;;;;;;10.65;7.75;;;;;;;14.50;62.90;94042.31;524162;28;772;-41
2023/10/02 01:15:41;;;;;;;9.88;7.88;;;;;;;14.47;62.83;94044.16;524107;28;1623;-40
2023/10/02 01:15:59;;;;;;;10.57;8.10;;;;;;;14.45;62.76;94038.41;525576;28;956;-40
2023/10/02 01:16:17;;;;;;;11.35;8.38;;;;;;;14.43;62.76;94038.25;526259;28;880;-40
2023/10/02 01:16:32;;;;;;;11.73;8.23;;;;;;;14.43;62.61;94038.25;528029;28;881;-41
2023/10/02 01:16:51;;;;;;;12.38;8.32;;;;;;;14.39;62.66;94026.78;528275;28;1110;-40
2023/10/02 01:17:08;;;;;;;12.17;8.00;;;;;;;14.44;62.78;94036.97;527849;28;864;-41
2023/10/02 01:17:23;;;;;;;11.38;8.23;;;;;;;14.43;62.77;94033.44;528430;28;907;-40
2023/10/02 01:17:39;;;;;;;11.77;8.73;;;;;;;14.43;62.75;94039.00;528356;28;794;-40
2023/10/02 01:18:36;;;;;;;10.40;8.07;;;;;;;14.47;62.76;94033.03;519920;28;1542;-41
2023/10/02 01:18:39;;;;;;;11.65;8.45;;;;;;;14.44;62.74;94028.63;526856;28;1112;-41
2023/10/02 01:18:52;;;;;;;11.20;8.35;;;;;;;14.46;62.93;94034.34;524819;28;1384;-40
2023/10/02 01:19:08;;;;;;;10.98;8.38;;;;;;;14.47;62.92;94035.81;526358;28;861;-40
2023/10/02 01:19:27;;;;;;;10.93;7.88;;;;;;;14.32;62.88;94011.59;526212;28;966;-41
2023/10/02 01:19:54;;;;;;;10.68;7.90;;;;;;;14.48;62.91;94031.75;524222;28;904;-41
2023/10/02 01:20:14;;;;;;;11.13;7.97;;;;;;;14.50;62.88;94031.94;524004;28;894;-40
2023/10/02 01:20:33;;;;;;;11.60;8.38;;;;;;;14.50;62.86;94037.50;524190;28;942;-40
2023/10/02 01:20:53;;;;;;;10.43;7.80;;;;;;;14.51;62.77;94029.91;524077;28;928;-40
2023/10/02 01:21:11;;;;;;;9.25;7.15;;;;;;;14.50;62.78;94034.72;524425;28;1148;-40
2023/10/02 01:21:28;;;;;;;10.55;7.75;;;;;;;14.51;62.88;94033.41;528279;28;924;-40
2023/10/02 01:21:44;;;;;;;10.80;7.70;;;;;;;14.51;62.85;94035.47;528610;28;908;-41
2023/10/02 01:22:00;;;;;;;11.68;8.10;;;;;;;14.51;62.95;94027.13;528524;28;799;-40
2023/10/02 01:22:26;;;;;;;11.95;8.65;;;;;;;14.50;62.98;94031.94;528387;28;948;-40
2023/10/02 01:22:45;;;;;;;11.35;8.10;;;;;;;14.51;62.95;94029.91;528258;28;900;-40
2023/10/02 01:23:17;;;;;;;9.60;7.97;;;;;;;14.51;63.01;94027.84;526227;28;1008;-40
2023/10/02 01:24:22;;;;;;;10.55;8.18;;;;;;;14.52;63.01;94021.00;526166;28;761;-40
2023/10/02 01:24:38;;;;;;;11.07;8.02;;;;;;;14.53;63.19;94025.25;526207;28;920;-41
2023/10/02 01:25:14;;;;;;;9.95;7.75;;;;;;;14.50;62.93;94026.38;526279;28;860;-40
2023/10/02 01:25:30;;;;;;;10.18;7.72;;;;;;;14.48;63.07;94023.41;526221;28;924;-40
2023/10/02 01:25:46;;;;;;;11.25;7.63;;;;;;;14.46;63.23;94017.69;526280;28;1196;-41
2023/10/02 01:26:02;;;;;;;11.85;8.55;;;;;;;14.48;63.30;94023.41;528197;28;973;-40
2023/10/02 01:26:18;;;;;;;10.70;8.35;;;;;;;14.48;63.39;94025.47;525580;28;1183;-40
2023/10/02 01:26:40;;;;;;;10.88;7.65;;;;;;;14.49;63.32;94024.16;524174;28;979;-41
2023/10/02 01:26:57;;;;;;;10.55;7.63;;;;;;;14.48;63.38;94017.88;526271;28;841;-40
2023/10/02 01:27:13;;;;;;;11.15;7.30;;;;;;;14.47;63.36;94016.38;523483;28;1271;-40
2023/10/02 01:27:40;;;;;;;11.63;7.53;;;;;;;14.48;63.47;94020.66;520009;28;873;-41
2023/10/02 01:27:56;;;;;;;11.02;8.18;;;;;;;14.49;63.30;94016.56;520041;28;838;-40
2023/10/02 01:28:13;;;;;;;11.27;8.27;;;;;;;14.49;63.25;94022.09;521091;28;1235;-41
2023/10/02 01:28:32;;;;;;;12.15;8.20;;;;;;;14.51;63.29;94013.22;521244;28;858;-41
2023/10/02 01:28:51;;;;;;;13.13;8.02;;;;;;;14.51;63.33;94018.78;521979;28;905;-41
2023/10/02 01:29:07;;;;;;;11.02;8.07;;;;;;;14.52;63.21;94018.22;523465;28;904;-40
2023/10/02 01:29:22;;;;;;;10.77;8.13;;;;;;;14.52;63.17;94021.00;523167;28;918;-41
2023/10/02 01:29:38;;;;;;;11.07;7.82;;;;;;;14.52;63.11;94017.47;524044;28;961;-40
2023/10/02 01:30:14;;;;;;;10.90;7.87;;;;;;;14.52;63.23;94021.00;524181;28;862;-41
2023/10/02 01:30:29;;;;;;;11.30;7.97;;;;;;;14.55;63.18;94022.66;525991;28;1647;-41
2023/10/02 01:30:44;;;;;;;11.00;7.85;;;;;;;14.55;63.06;94016.34;526297;28;889;-41
2023/10/02 01:31:31;;;;;;;10.37;7.57;;;;;;;14.55;63.02;94019.13;526274;28;785;-40
2023/10/02 01:31:35;;;;;;;9.50;7.93;;;;;;;14.54;63.07;94018.41;526352;28;1562;-41
2023/10/02 01:31:52;;;;;;;10.85;8.32;;;;;;;14.55;63.11;94022.66;526437;28;888;-41
2023/10/02 01:32:08;;;;;;;11.15;7.93;;;;;;;14.55;63.00;94019.88;526324;28;916;-41
2023/10/02 01:32:23;;;;;;;11.60;8.17;;;;;;;14.55;62.99;94022.66;526510;28;868;-41
2023/10/02 01:33:35;;;;;;;8.63;7.28;;;;;;;14.56;62.74;94020.59;521935;28;1307;-41
2023/10/02 01:33:39;;;;;;;10.63;8.43;;;;;;;14.55;62.99;94014.31;526341;28;888;-40
2023/10/02 01:33:52;;;;;;;10.70;7.57;;;;;;;14.55;62.71;94019.13;525102;28;1499;-40
2023/10/02 01:34:10;;;;;;;13.23;7.95;;;;;;;14.56;62.50;94020.59;526768;28;1168;-40
2023/10/02 01:34:39;;;;;;;10.50;7.93;;;;;;;14.55;62.54;94022.66;528433;28;1004;-40
2023/10/02 01:34:55;;;;;;;10.63;7.80;;;;;;;14.55;62.42;94019.88;528504;28;979;-41
2023/10/02 01:35:10;;;;;;;11.27;8.13;;;;;;;14.55;62.53;94019.13;528403;28;1910;-40
2023/10/02 01:35:29;;;;;;;10.27;7.83;;;;;;;14.54;62.49;94017.66;528560;28;781;-41
2023/10/02 01:35:57;;;;;;;9.70;7.13;;;;;;;14.54;62.44;94021.16;528448;28;880;-41
2023/10/02 01:36:12;;;;;;;9.27;7.80;;;;;;;14.54;62.30;94018.41;528475;28;795;-40
2023/10/02 01:36:31;;;;;;;9.73;7.73;;;;;;;14.54;62.33;94021.16;528304;28;903;-40
2023/10/02 01:36:47;;;;;;;9.85;7.50;;;;;;;14.54;62.29;94021.16;528265;28;940;-40
2023/10/02 01:37:32;;;;;;;10.60;8.15;;;;;;;14.54;62.22;94017.66;528332;28;916;-41
2023/10/02 01:37:46;;;;;;;11.38;7.93;;;;;;;14.54;62.27;94015.63;528186;28;1644;-40
2023/10/02 01:38:12;;;;;;;11.32;7.80;;;;;;;14.53;62.23;94019.69;528347;28;849;-41
2023/10/02 01:38:33;;;;;;;9.00;7.28;;;;;;;14.53;62.15;94019.69;528425;28;892;-40
2023/10/02 01:38:49;;;;;;;10.55;7.90;;;;;;;14.52;62.37;94015.44;528472;28;923;-40
2023/10/02 01:39:13;;;;;;;10.85;8.07;;;;;;;14.52;62.38;94021.00;528474;28;825;-41
2023/10/02 01:39:28;;;;;;;8.63;7.57;;;;;;;14.53;62.47;94018.97;528397;28;887;-40
2023/10/02 01:39:44;;;;;;;9.40;7.77;;;;;;;14.52;62.51;94018.22;528509;28;936;-41